sensor_id;sensor_type;location;lat;lon;timestamp;P1;durP1;ratioP1;P2;durP2;ratioP2
20443;SDS011;10381;53.730;10.010;2022-12-16T00:01:47;232.53;;;209.27;;
20443;SDS011;10381;53.730;10.010;2022-12-16T00:05:47;227.88;;;203.50;;
20443;SDS011;10381;53.730;10.010;2022-12-16T00:09:47;227.95;;;204.73;;
20443;SDS011;10381;53.730;10.010;2022-12-16T00:13:48;227.93;;;204.20;;
20443;SDS011;10381;53.730;10.010;2022-12-16T00:17:48;221.53;;;198.77;;
20443;SDS011;10381;53.730;10.010;2022-12-16T00:21:48;223.13;;;199.57;;
20443;SDS011;10381;53.730;10.010;2022-12-16T00:25:48;223.17;;;199.30;;
20443;SDS011;10381;53.730;10.010;2022-12-16T00:29:49;216.80;;;193.98;;
20443;SDS011;10381;53.730;10.010;2022-12-16T00:33:49;214.88;;;192.43;;
20443;SDS011;10381;53.730;10.010;2022-12-16T00:37:51;210.13;;;188.02;;
20443;SDS011;10381;53.730;10.010;2022-12-16T00:41:52;209.55;;;186.77;;
20443;SDS011;10381;53.730;10.010;2022-12-16T00:45:52;214.03;;;191.47;;
20443;SDS011;10381;53.730;10.010;2022-12-16T00:49:52;214.10;;;191.10;;
20443;SDS011;10381;53.730;10.010;2022-12-16T00:53:52;212.43;;;189.87;;
20443;SDS011;10381;53.730;10.010;2022-12-16T00:57:53;218.25;;;195.55;;
20443;SDS011;10381;53.730;10.010;2022-12-16T01:01:53;225.23;;;201.00;;
20443;SDS011;10381;53.730;10.010;2022-12-16T01:05:53;220.20;;;196.93;;
20443;SDS011;10381;53.730;10.010;2022-12-16T01:09:54;208.85;;;186.73;;
20443;SDS011;10381;53.730;10.010;2022-12-16T01:13:54;216.63;;;193.70;;
20443;SDS011;10381;53.730;10.010;2022-12-16T01:17:54;217.30;;;194.27;;
20443;SDS011;10381;53.730;10.010;2022-12-16T01:21:54;220.13;;;197.23;;
20443;SDS011;10381;53.730;10.010;2022-12-16T01:25:56;220.15;;;196.07;;
20443;SDS011;10381;53.730;10.010;2022-12-16T01:29:58;223.07;;;200.80;;
20443;SDS011;10381;53.730;10.010;2022-12-16T01:33:58;217.80;;;194.13;;
20443;SDS011;10381;53.730;10.010;2022-12-16T01:37:58;231.50;;;207.27;;
20443;SDS011;10381;53.730;10.010;2022-12-16T01:41:58;217.53;;;194.30;;
20443;SDS011;10381;53.730;10.010;2022-12-16T01:46:00;204.57;;;182.67;;
20443;SDS011;10381;53.730;10.010;2022-12-16T01:50:06;215.48;;;193.48;;
20443;SDS011;10381;53.730;10.010;2022-12-16T01:54:16;227.82;;;203.38;;
20443;SDS011;10381;53.730;10.010;2022-12-16T01:58:22;220.55;;;198.60;;
20443;SDS011;10381;53.730;10.010;2022-12-16T02:02:26;229.43;;;205.90;;
20443;SDS011;10381;53.730;10.010;2022-12-16T02:06:27;222.55;;;199.13;;
20443;SDS011;10381;53.730;10.010;2022-12-16T02:10:32;217.32;;;195.20;;
20443;SDS011;10381;53.730;10.010;2022-12-16T02:14:58;215.95;;;192.65;;
20443;SDS011;10381;53.730;10.010;2022-12-16T02:27:38;215.20;;;191.93;;
20443;SDS011;10381;53.730;10.010;2022-12-16T02:40:23;200.77;;;179.80;;
20443;SDS011;10381;53.730;10.010;2022-12-16T02:44:33;214.50;;;193.00;;
20443;SDS011;10381;53.730;10.010;2022-12-16T02:48:43;218.02;;;195.32;;
20443;SDS011;10381;53.730;10.010;2022-12-16T02:52:43;218.93;;;197.18;;
20443;SDS011;10381;53.730;10.010;2022-12-16T03:01:31;225.77;;;202.52;;
20443;SDS011;10381;53.730;10.010;2022-12-16T03:05:41;228.95;;;206.10;;
20443;SDS011;10381;53.730;10.010;2022-12-16T03:09:47;227.85;;;205.13;;
20443;SDS011;10381;53.730;10.010;2022-12-16T03:13:49;194.15;;;173.43;;
20443;SDS011;10381;53.730;10.010;2022-12-16T03:17:52;207.43;;;187.15;;
20443;SDS011;10381;53.730;10.010;2022-12-16T03:22:00;194.40;;;174.10;;
20443;SDS011;10381;53.730;10.010;2022-12-16T03:26:07;183.25;;;164.73;;
20443;SDS011;10381;53.730;10.010;2022-12-16T03:30:16;186.70;;;166.95;;
20443;SDS011;10381;53.730;10.010;2022-12-16T03:34:34;197.30;;;176.90;;
20443;SDS011;10381;53.730;10.010;2022-12-16T03:38:39;186.95;;;167.27;;
20443;SDS011;10381;53.730;10.010;2022-12-16T03:42:41;177.02;;;158.73;;
20443;SDS011;10381;53.730;10.010;2022-12-16T03:46:42;187.20;;;167.38;;
20443;SDS011;10381;53.730;10.010;2022-12-16T03:50:43;177.52;;;159.40;;
20443;SDS011;10381;53.730;10.010;2022-12-16T03:54:43;182.70;;;162.73;;
20443;SDS011;10381;53.730;10.010;2022-12-16T03:58:43;181.33;;;162.67;;
20443;SDS011;10381;53.730;10.010;2022-12-16T04:02:45;187.32;;;167.85;;
20443;SDS011;10381;53.730;10.010;2022-12-16T04:06:46;174.75;;;156.73;;
20443;SDS011;10381;53.730;10.010;2022-12-16T04:11:07;172.73;;;154.10;;
20443;SDS011;10381;53.730;10.010;2022-12-16T04:15:26;176.82;;;157.88;;
20443;SDS011;10381;53.730;10.010;2022-12-16T04:19:45;178.05;;;158.80;;
20443;SDS011;10381;53.730;10.010;2022-12-16T04:24:07;171.00;;;150.60;;
20443;SDS011;10381;53.730;10.010;2022-12-16T04:28:18;188.00;;;167.48;;
20443;SDS011;10381;53.730;10.010;2022-12-16T04:32:18;183.70;;;164.47;;
20443;SDS011;10381;53.730;10.010;2022-12-16T04:36:18;180.45;;;160.45;;
20443;SDS011;10381;53.730;10.010;2022-12-16T04:40:37;203.80;;;182.88;;
20443;SDS011;10381;53.730;10.010;2022-12-16T04:44:56;198.43;;;177.43;;
20443;SDS011;10381;53.730;10.010;2022-12-16T04:49:15;193.85;;;173.55;;
20443;SDS011;10381;53.730;10.010;2022-12-16T04:53:34;201.63;;;180.88;;
20443;SDS011;10381;53.730;10.010;2022-12-16T04:57:54;191.68;;;171.95;;
20443;SDS011;10381;53.730;10.010;2022-12-16T05:02:17;192.45;;;172.27;;
20443;SDS011;10381;53.730;10.010;2022-12-16T05:06:36;185.80;;;166.18;;
20443;SDS011;10381;53.730;10.010;2022-12-16T05:10:55;175.20;;;156.35;;
20443;SDS011;10381;53.730;10.010;2022-12-16T05:15:14;183.82;;;164.52;;
20443;SDS011;10381;53.730;10.010;2022-12-16T05:19:33;196.18;;;175.73;;
20443;SDS011;10381;53.730;10.010;2022-12-16T05:23:51;198.68;;;178.10;;
20443;SDS011;10381;53.730;10.010;2022-12-16T05:28:10;190.52;;;170.15;;
20443;SDS011;10381;53.730;10.010;2022-12-16T05:32:29;190.77;;;170.05;;
20443;SDS011;10381;53.730;10.010;2022-12-16T05:36:48;185.10;;;164.88;;
20443;SDS011;10381;53.730;10.010;2022-12-16T05:41:07;192.15;;;172.18;;
20443;SDS011;10381;53.730;10.010;2022-12-16T05:45:30;193.45;;;173.65;;
20443;SDS011;10381;53.730;10.010;2022-12-16T05:49:49;189.75;;;169.57;;
20443;SDS011;10381;53.730;10.010;2022-12-16T05:54:08;197.32;;;176.40;;
20443;SDS011;10381;53.730;10.010;2022-12-16T05:58:27;200.27;;;180.18;;
20443;SDS011;10381;53.730;10.010;2022-12-16T06:02:46;207.90;;;186.80;;
20443;SDS011;10381;53.730;10.010;2022-12-16T06:07:07;207.68;;;186.00;;
20443;SDS011;10381;53.730;10.010;2022-12-16T06:11:34;196.73;;;176.90;;
20443;SDS011;10381;53.730;10.010;2022-12-16T06:15:53;182.82;;;163.88;;
20443;SDS011;10381;53.730;10.010;2022-12-16T06:20:12;181.63;;;163.23;;
20443;SDS011;10381;53.730;10.010;2022-12-16T06:24:30;185.05;;;165.95;;
20443;SDS011;10381;53.730;10.010;2022-12-16T06:28:49;177.63;;;159.07;;
20443;SDS011;10381;53.730;10.010;2022-12-16T06:33:08;174.85;;;156.88;;
20443;SDS011;10381;53.730;10.010;2022-12-16T06:37:27;179.27;;;160.30;;
20443;SDS011;10381;53.730;10.010;2022-12-16T06:41:46;177.82;;;158.23;;
20443;SDS011;10381;53.730;10.010;2022-12-16T06:46:04;184.75;;;164.93;;
20443;SDS011;10381;53.730;10.010;2022-12-16T06:50:23;194.13;;;173.10;;
20443;SDS011;10381;53.730;10.010;2022-12-16T06:54:42;203.68;;;182.45;;
20443;SDS011;10381;53.730;10.010;2022-12-16T06:59:01;202.38;;;181.50;;
20443;SDS011;10381;53.730;10.010;2022-12-16T07:03:20;197.60;;;176.52;;
20443;SDS011;10381;53.730;10.010;2022-12-16T07:07:40;200.43;;;180.20;;
20443;SDS011;10381;53.730;10.010;2022-12-16T07:12:04;208.07;;;186.13;;
20443;SDS011;10381;53.730;10.010;2022-12-16T07:16:23;212.30;;;189.57;;
20443;SDS011;10381;53.730;10.010;2022-12-16T07:20:42;213.13;;;190.50;;
20443;SDS011;10381;53.730;10.010;2022-12-16T07:25:01;209.75;;;187.73;;
20443;SDS011;10381;53.730;10.010;2022-12-16T07:29:19;211.52;;;188.15;;
20443;SDS011;10381;53.730;10.010;2022-12-16T07:33:38;206.13;;;182.25;;
20443;SDS011;10381;53.730;10.010;2022-12-16T07:37:57;212.38;;;190.55;;
20443;SDS011;10381;53.730;10.010;2022-12-16T07:42:16;216.27;;;194.15;;
20443;SDS011;10381;53.730;10.010;2022-12-16T07:46:35;211.90;;;189.68;;
20443;SDS011;10381;53.730;10.010;2022-12-16T07:50:53;215.27;;;192.05;;
20443;SDS011;10381;53.730;10.010;2022-12-16T07:55:12;214.63;;;192.10;;
20443;SDS011;10381;53.730;10.010;2022-12-16T07:59:31;222.70;;;200.38;;
20443;SDS011;10381;53.730;10.010;2022-12-16T08:03:49;220.70;;;197.27;;
20443;SDS011;10381;53.730;10.010;2022-12-16T08:08:08;214.88;;;192.80;;
20443;SDS011;10381;53.730;10.010;2022-12-16T08:12:27;207.77;;;185.43;;
20443;SDS011;10381;53.730;10.010;2022-12-16T08:16:46;204.10;;;180.18;;
20443;SDS011;10381;53.730;10.010;2022-12-16T08:21:22;211.45;;;186.68;;
20443;SDS011;10381;53.730;10.010;2022-12-16T08:25:41;233.80;;;198.63;;
20443;SDS011;10381;53.730;10.010;2022-12-16T08:29:59;217.25;;;194.07;;
20443;SDS011;10381;53.730;10.010;2022-12-16T08:34:18;213.95;;;190.40;;
20443;SDS011;10381;53.730;10.010;2022-12-16T08:38:36;197.43;;;176.48;;
20443;SDS011;10381;53.730;10.010;2022-12-16T08:42:56;200.32;;;178.85;;
20443;SDS011;10381;53.730;10.010;2022-12-16T08:47:15;201.02;;;179.48;;
20443;SDS011;10381;53.730;10.010;2022-12-16T08:51:33;216.48;;;192.63;;
20443;SDS011;10381;53.730;10.010;2022-12-16T08:55:52;195.80;;;174.30;;
20443;SDS011;10381;53.730;10.010;2022-12-16T09:00:11;207.60;;;173.27;;
20443;SDS011;10381;53.730;10.010;2022-12-16T09:04:30;183.18;;;163.02;;
20443;SDS011;10381;53.730;10.010;2022-12-16T09:08:49;182.95;;;160.85;;
20443;SDS011;10381;53.730;10.010;2022-12-16T09:13:08;169.20;;;151.27;;
20443;SDS011;10381;53.730;10.010;2022-12-16T09:17:29;178.95;;;159.27;;
20443;SDS011;10381;53.730;10.010;2022-12-16T09:21:48;197.25;;;160.27;;
20443;SDS011;10381;53.730;10.010;2022-12-16T09:26:06;177.02;;;152.05;;
20443;SDS011;10381;53.730;10.010;2022-12-16T09:30:25;181.57;;;159.15;;
20443;SDS011;10381;53.730;10.010;2022-12-16T09:34:44;175.25;;;154.48;;
20443;SDS011;10381;53.730;10.010;2022-12-16T09:39:03;187.48;;;156.43;;
20443;SDS011;10381;53.730;10.010;2022-12-16T09:47:56;176.27;;;154.57;;
20443;SDS011;10381;53.730;10.010;2022-12-16T09:52:22;167.00;;;147.55;;
20443;SDS011;10381;53.730;10.010;2022-12-16T09:56:42;165.68;;;147.93;;
20443;SDS011;10381;53.730;10.010;2022-12-16T10:01:02;165.23;;;136.90;;
20443;SDS011;10381;53.730;10.010;2022-12-16T10:05:23;161.40;;;139.10;;
20443;SDS011;10381;53.730;10.010;2022-12-16T10:09:58;170.30;;;141.48;;
20443;SDS011;10381;53.730;10.010;2022-12-16T10:14:30;164.32;;;142.73;;
20443;SDS011;10381;53.730;10.010;2022-12-16T10:23:30;154.75;;;131.25;;
20443;SDS011;10381;53.730;10.010;2022-12-16T10:32:43;151.85;;;135.15;;
20443;SDS011;10381;53.730;10.010;2022-12-16T10:37:04;139.93;;;122.30;;
20443;SDS011;10381;53.730;10.010;2022-12-16T10:41:24;149.77;;;123.63;;
20443;SDS011;10381;53.730;10.010;2022-12-16T10:45:48;150.35;;;125.32;;
20443;SDS011;10381;53.730;10.010;2022-12-16T10:50:12;150.13;;;121.07;;
20443;SDS011;10381;53.730;10.010;2022-12-16T10:54:32;160.98;;;130.60;;
20443;SDS011;10381;53.730;10.010;2022-12-16T10:59:00;149.18;;;125.97;;
20443;SDS011;10381;53.730;10.010;2022-12-16T11:03:23;146.50;;;124.20;;
20443;SDS011;10381;53.730;10.010;2022-12-16T11:12:13;139.30;;;111.15;;
20443;SDS011;10381;53.730;10.010;2022-12-16T11:16:37;139.93;;;116.15;;
20443;SDS011;10381;53.730;10.010;2022-12-16T11:21:03;133.23;;;105.50;;
20443;SDS011;10381;53.730;10.010;2022-12-16T11:25:36;142.25;;;108.75;;
20443;SDS011;10381;53.730;10.010;2022-12-16T11:29:59;132.40;;;104.07;;
20443;SDS011;10381;53.730;10.010;2022-12-16T11:34:20;130.35;;;91.47;;
20443;SDS011;10381;53.730;10.010;2022-12-16T11:38:43;118.30;;;86.72;;
20443;SDS011;10381;53.730;10.010;2022-12-16T11:43:04;117.03;;;80.78;;
20443;SDS011;10381;53.730;10.010;2022-12-16T11:52:12;120.07;;;80.32;;
20443;SDS011;10381;53.730;10.010;2022-12-16T11:56:35;128.63;;;75.47;;
20443;SDS011;10381;53.730;10.010;2022-12-16T12:01:01;127.22;;;80.03;;
20443;SDS011;10381;53.730;10.010;2022-12-16T12:05:27;122.45;;;77.53;;
20443;SDS011;10381;53.730;10.010;2022-12-16T12:29:14;119.25;;;68.97;;
20443;SDS011;10381;53.730;10.010;2022-12-16T12:33:59;120.78;;;74.20;;
20443;SDS011;10381;53.730;10.010;2022-12-16T12:38:33;129.70;;;85.07;;
20443;SDS011;10381;53.730;10.010;2022-12-16T12:43:04;128.25;;;89.53;;
20443;SDS011;10381;53.730;10.010;2022-12-16T12:47:34;116.50;;;88.90;;
20443;SDS011;10381;53.730;10.010;2022-12-16T12:56:49;115.22;;;80.28;;
20443;SDS011;10381;53.730;10.010;2022-12-16T13:01:10;113.97;;;73.03;;
20443;SDS011;10381;53.730;10.010;2022-12-16T13:05:31;103.60;;;68.35;;
20443;SDS011;10381;53.730;10.010;2022-12-16T13:23:47;87.53;;;48.97;;
20443;SDS011;10381;53.730;10.010;2022-12-16T13:28:15;100.25;;;50.58;;
20443;SDS011;10381;53.730;10.010;2022-12-16T13:32:39;93.80;;;47.65;;
20443;SDS011;10381;53.730;10.010;2022-12-16T13:37:20;91.75;;;48.03;;
20443;SDS011;10381;53.730;10.010;2022-12-16T13:50:39;83.35;;;42.75;;
20443;SDS011;10381;53.730;10.010;2022-12-16T13:55:10;89.32;;;43.25;;
20443;SDS011;10381;53.730;10.010;2022-12-16T13:59:32;86.57;;;41.95;;
20443;SDS011;10381;53.730;10.010;2022-12-16T14:03:56;80.00;;;41.83;;
20443;SDS011;10381;53.730;10.010;2022-12-16T14:08:19;80.20;;;41.80;;
20443;SDS011;10381;53.730;10.010;2022-12-16T14:13:00;82.50;;;42.50;;
20443;SDS011;10381;53.730;10.010;2022-12-16T14:17:28;82.55;;;43.83;;
20443;SDS011;10381;53.730;10.010;2022-12-16T14:26:49;93.05;;;44.78;;
20443;SDS011;10381;53.730;10.010;2022-12-16T14:31:19;101.57;;;48.60;;
20443;SDS011;10381;53.730;10.010;2022-12-16T14:35:47;82.10;;;50.03;;
20443;SDS011;10381;53.730;10.010;2022-12-16T14:44:48;119.90;;;58.38;;
20443;SDS011;10381;53.730;10.010;2022-12-16T14:49:14;113.82;;;59.55;;
20443;SDS011;10381;53.730;10.010;2022-12-16T14:53:37;111.30;;;69.95;;
20443;SDS011;10381;53.730;10.010;2022-12-16T14:58:17;107.43;;;74.20;;
20443;SDS011;10381;53.730;10.010;2022-12-16T15:02:36;123.13;;;78.93;;
20443;SDS011;10381;53.730;10.010;2022-12-16T15:07:01;126.78;;;90.35;;
20443;SDS011;10381;53.730;10.010;2022-12-16T15:11:23;139.40;;;97.40;;
20443;SDS011;10381;53.730;10.010;2022-12-16T15:15:46;140.73;;;104.35;;
20443;SDS011;10381;53.730;10.010;2022-12-16T15:20:18;137.45;;;107.07;;
20443;SDS011;10381;53.730;10.010;2022-12-16T15:24:39;144.38;;;112.95;;
20443;SDS011;10381;53.730;10.010;2022-12-16T15:28:58;157.02;;;120.22;;
20443;SDS011;10381;53.730;10.010;2022-12-16T15:33:17;155.32;;;126.65;;
20443;SDS011;10381;53.730;10.010;2022-12-16T15:37:38;175.30;;;134.13;;
20443;SDS011;10381;53.730;10.010;2022-12-16T15:41:59;167.27;;;149.10;;
20443;SDS011;10381;53.730;10.010;2022-12-16T15:46:19;181.32;;;156.68;;
20443;SDS011;10381;53.730;10.010;2022-12-16T15:50:40;183.30;;;156.52;;
20443;SDS011;10381;53.730;10.010;2022-12-16T15:54:59;192.85;;;171.82;;
20443;SDS011;10381;53.730;10.010;2022-12-16T15:59:22;193.90;;;168.98;;
20443;SDS011;10381;53.730;10.010;2022-12-16T16:03:48;201.55;;;170.88;;
20443;SDS011;10381;53.730;10.010;2022-12-16T16:08:11;197.10;;;169.57;;
20443;SDS011;10381;53.730;10.010;2022-12-16T16:12:30;201.02;;;166.00;;
20443;SDS011;10381;53.730;10.010;2022-12-16T16:16:49;193.20;;;160.75;;
20443;SDS011;10381;53.730;10.010;2022-12-16T16:21:08;200.63;;;173.10;;
20443;SDS011;10381;53.730;10.010;2022-12-16T16:25:26;205.40;;;183.40;;
20443;SDS011;10381;53.730;10.010;2022-12-16T16:29:45;210.23;;;185.30;;
20443;SDS011;10381;53.730;10.010;2022-12-16T16:34:04;211.52;;;189.05;;
20443;SDS011;10381;53.730;10.010;2022-12-16T16:38:24;221.82;;;197.60;;
20443;SDS011;10381;53.730;10.010;2022-12-16T16:42:43;222.80;;;198.73;;
20443;SDS011;10381;53.730;10.010;2022-12-16T16:47:02;226.93;;;202.90;;
20443;SDS011;10381;53.730;10.010;2022-12-16T16:51:21;246.13;;;219.32;;
20443;SDS011;10381;53.730;10.010;2022-12-16T16:55:39;246.07;;;219.23;;
20443;SDS011;10381;53.730;10.010;2022-12-16T16:59:58;247.50;;;220.50;;
20443;SDS011;10381;53.730;10.010;2022-12-16T17:04:17;238.63;;;213.43;;
20443;SDS011;10381;53.730;10.010;2022-12-16T17:08:36;246.18;;;217.70;;
20443;SDS011;10381;53.730;10.010;2022-12-16T17:12:55;261.10;;;221.10;;
20443;SDS011;10381;53.730;10.010;2022-12-16T17:17:14;240.73;;;215.20;;
20443;SDS011;10381;53.730;10.010;2022-12-16T17:21:33;249.85;;;223.38;;
20443;SDS011;10381;53.730;10.010;2022-12-16T17:25:52;249.20;;;223.05;;
20443;SDS011;10381;53.730;10.010;2022-12-16T17:30:18;259.88;;;232.30;;
20443;SDS011;10381;53.730;10.010;2022-12-16T17:34:38;271.25;;;241.80;;
20443;SDS011;10381;53.730;10.010;2022-12-16T17:38:57;284.77;;;254.68;;
20443;SDS011;10381;53.730;10.010;2022-12-16T17:43:17;290.10;;;259.15;;
20443;SDS011;10381;53.730;10.010;2022-12-16T17:47:35;289.60;;;258.63;;
20443;SDS011;10381;53.730;10.010;2022-12-16T17:51:54;300.25;;;267.00;;
20443;SDS011;10381;53.730;10.010;2022-12-16T17:56:13;301.15;;;268.83;;
20443;SDS011;10381;53.730;10.010;2022-12-16T18:00:32;313.50;;;279.92;;
20443;SDS011;10381;53.730;10.010;2022-12-16T18:04:50;313.75;;;272.30;;
20443;SDS011;10381;53.730;10.010;2022-12-16T18:09:10;306.48;;;272.83;;
20443;SDS011;10381;53.730;10.010;2022-12-16T18:13:30;307.50;;;273.20;;
20443;SDS011;10381;53.730;10.010;2022-12-16T18:17:48;349.80;;;299.63;;
20443;SDS011;10381;53.730;10.010;2022-12-16T18:22:07;319.55;;;284.08;;
20443;SDS011;10381;53.730;10.010;2022-12-16T18:26:26;333.23;;;291.75;;
20443;SDS011;10381;53.730;10.010;2022-12-16T18:30:45;324.77;;;285.08;;
20443;SDS011;10381;53.730;10.010;2022-12-16T18:35:06;313.38;;;279.42;;
20443;SDS011;10381;53.730;10.010;2022-12-16T18:39:25;326.35;;;286.25;;
20443;SDS011;10381;53.730;10.010;2022-12-16T18:43:44;328.92;;;293.95;;
20443;SDS011;10381;53.730;10.010;2022-12-16T18:48:03;329.80;;;293.27;;
20443;SDS011;10381;53.730;10.010;2022-12-16T18:52:22;342.20;;;292.60;;
20443;SDS011;10381;53.730;10.010;2022-12-16T18:56:41;330.42;;;294.60;;
20443;SDS011;10381;53.730;10.010;2022-12-16T19:01:04;337.85;;;300.80;;
20443;SDS011;10381;53.730;10.010;2022-12-16T19:05:25;347.13;;;299.42;;
20443;SDS011;10381;53.730;10.010;2022-12-16T19:09:43;351.55;;;308.08;;
20443;SDS011;10381;53.730;10.010;2022-12-16T19:14:02;357.27;;;318.80;;
20443;SDS011;10381;53.730;10.010;2022-12-16T19:18:21;351.58;;;312.75;;
20443;SDS011;10381;53.730;10.010;2022-12-16T19:22:40;351.92;;;312.98;;
20443;SDS011;10381;53.730;10.010;2022-12-16T19:26:59;367.95;;;327.73;;
20443;SDS011;10381;53.730;10.010;2022-12-16T19:31:17;360.92;;;321.13;;
20443;SDS011;10381;53.730;10.010;2022-12-16T19:35:36;362.27;;;323.33;;
20443;SDS011;10381;53.730;10.010;2022-12-16T19:39:55;374.67;;;331.35;;
20443;SDS011;10381;53.730;10.010;2022-12-16T19:44:14;368.80;;;330.15;;
20443;SDS011;10381;53.730;10.010;2022-12-16T19:48:32;361.95;;;324.33;;
20443;SDS011;10381;53.730;10.010;2022-12-16T19:52:52;382.33;;;342.02;;
20443;SDS011;10381;53.730;10.010;2022-12-16T19:57:10;375.92;;;335.85;;
20443;SDS011;10381;53.730;10.010;2022-12-16T20:01:29;382.23;;;340.63;;
20443;SDS011;10381;53.730;10.010;2022-12-16T20:05:57;367.48;;;328.90;;
20443;SDS011;10381;53.730;10.010;2022-12-16T20:10:17;366.75;;;328.45;;
20443;SDS011;10381;53.730;10.010;2022-12-16T20:14:35;373.40;;;334.77;;
20443;SDS011;10381;53.730;10.010;2022-12-16T20:18:55;386.58;;;345.55;;
20443;SDS011;10381;53.730;10.010;2022-12-16T20:23:14;371.27;;;331.85;;
20443;SDS011;10381;53.730;10.010;2022-12-16T20:27:33;371.92;;;331.30;;
20443;SDS011;10381;53.730;10.010;2022-12-16T20:31:52;396.17;;;350.08;;
20443;SDS011;10381;53.730;10.010;2022-12-16T20:36:11;404.20;;;348.83;;
20443;SDS011;10381;53.730;10.010;2022-12-16T20:40:29;431.08;;;356.58;;
20443;SDS011;10381;53.730;10.010;2022-12-16T20:44:48;403.13;;;351.48;;
20443;SDS011;10381;53.730;10.010;2022-12-16T20:49:07;416.45;;;365.17;;
20443;SDS011;10381;53.730;10.010;2022-12-16T20:53:26;417.08;;;357.27;;
20443;SDS011;10381;53.730;10.010;2022-12-16T20:57:45;427.48;;;362.60;;
20443;SDS011;10381;53.730;10.010;2022-12-16T21:02:04;420.08;;;360.40;;
20443;SDS011;10381;53.730;10.010;2022-12-16T21:06:23;413.80;;;351.48;;
20443;SDS011;10381;53.730;10.010;2022-12-16T21:10:56;376.52;;;335.25;;
20443;SDS011;10381;53.730;10.010;2022-12-16T21:15:15;385.42;;;342.13;;
20443;SDS011;10381;53.730;10.010;2022-12-16T21:19:34;402.90;;;349.20;;
20443;SDS011;10381;53.730;10.010;2022-12-16T21:23:53;396.85;;;353.10;;
20443;SDS011;10381;53.730;10.010;2022-12-16T21:28:11;384.52;;;340.30;;
20443;SDS011;10381;53.730;10.010;2022-12-16T21:32:31;394.52;;;352.77;;
20443;SDS011;10381;53.730;10.010;2022-12-16T21:36:49;400.85;;;356.67;;
20443;SDS011;10381;53.730;10.010;2022-12-16T21:41:11;403.30;;;348.30;;
20443;SDS011;10381;53.730;10.010;2022-12-16T21:45:30;383.48;;;341.25;;
20443;SDS011;10381;53.730;10.010;2022-12-16T21:49:49;388.25;;;346.10;;
20443;SDS011;10381;53.730;10.010;2022-12-16T21:54:07;378.10;;;336.90;;
20443;SDS011;10381;53.730;10.010;2022-12-16T21:58:26;368.65;;;329.02;;
20443;SDS011;10381;53.730;10.010;2022-12-16T22:02:45;374.42;;;334.58;;
20443;SDS011;10381;53.730;10.010;2022-12-16T22:07:04;360.05;;;321.38;;
20443;SDS011;10381;53.730;10.010;2022-12-16T22:11:23;360.42;;;309.52;;
20443;SDS011;10381;53.730;10.010;2022-12-16T22:15:42;351.40;;;314.77;;
20443;SDS011;10381;53.730;10.010;2022-12-16T22:20:01;368.77;;;328.50;;
20443;SDS011;10381;53.730;10.010;2022-12-16T22:24:21;365.08;;;325.60;;
20443;SDS011;10381;53.730;10.010;2022-12-16T22:28:40;370.15;;;329.95;;
20443;SDS011;10381;53.730;10.010;2022-12-16T22:33:19;356.23;;;319.02;;
20443;SDS011;10381;53.730;10.010;2022-12-16T22:37:38;350.00;;;312.67;;
20443;SDS011;10381;53.730;10.010;2022-12-16T22:41:56;345.15;;;307.50;;
20443;SDS011;10381;53.730;10.010;2022-12-16T22:46:16;354.75;;;317.65;;
20443;SDS011;10381;53.730;10.010;2022-12-16T22:50:34;352.20;;;314.95;;
20443;SDS011;10381;53.730;10.010;2022-12-16T22:54:53;322.38;;;288.13;;
20443;SDS011;10381;53.730;10.010;2022-12-16T22:59:12;312.08;;;279.20;;
20443;SDS011;10381;53.730;10.010;2022-12-16T23:03:38;309.67;;;275.95;;
20443;SDS011;10381;53.730;10.010;2022-12-16T23:07:57;291.50;;;259.25;;
20443;SDS011;10381;53.730;10.010;2022-12-16T23:12:16;293.30;;;255.35;;
20443;SDS011;10381;53.730;10.010;2022-12-16T23:16:34;266.33;;;237.23;;
20443;SDS011;10381;53.730;10.010;2022-12-16T23:20:53;266.60;;;237.63;;
20443;SDS011;10381;53.730;10.010;2022-12-16T23:25:12;271.60;;;241.80;;
20443;SDS011;10381;53.730;10.010;2022-12-16T23:29:31;263.40;;;234.75;;
20443;SDS011;10381;53.730;10.010;2022-12-16T23:33:50;264.60;;;234.23;;
20443;SDS011;10381;53.730;10.010;2022-12-16T23:38:09;265.08;;;236.93;;
20443;SDS011;10381;53.730;10.010;2022-12-16T23:42:28;248.98;;;219.60;;
20443;SDS011;10381;53.730;10.010;2022-12-16T23:46:47;211.50;;;188.88;;
20443;SDS011;10381;53.730;10.010;2022-12-16T23:51:05;207.45;;;185.35;;
20443;SDS011;10381;53.730;10.010;2022-12-16T23:55:24;220.35;;;191.55;;
20443;SDS011;10381;53.730;10.010;2022-12-16T23:59:43;238.90;;;200.13;;
